Terminal Aerodrome Forecast
Issued by NWS Cleveland, OH

Home | Current Version | Previous Version | Text Only | Print | Product List | Glossary On
Versions: 1 2 3 4 5 6 7 8 9 10 11 12 13 14 15 16 17 18 19 20 21 22 23 24 25 26 27 28 29 30 31 32 33
000
FTUS41 KCLE 210800 AAA
TAFCLE
TAF AMD
KCLE 210833Z 2109/2212 23012G22KT P6SM VCSH BKN060
     FM211300 24015G28KT P6SM BKN060
     FM211600 24020G35KT P6SM BKN060
     FM212300 24015G22KT P6SM BKN060
     FM220300 22010KT P6SM VCSH OVC050=

USA.gov is the U.S. government's official web portal to all federal, state and local government web resources and services.